GQPA/ATR METAR and TAF weather

Enter ICAO airport designator
Station Type Date Time Source
GQPA METAR 2019/12/05 15:00 UTC NOAA

GQPA 051500Z 28006KT CAVOK 26/02 Q1013


Station Type Date Time Source
GQPA Decoded METAR 2019/12/05 15:00 UTC NOAA

Atar, Mauritania (GQPA) 20-31N 013-04W 224M
Dec 05, 2019 - 10:00 AM EST / 2019.12.05 1500 UTC
Wind: from the W (280 degrees) at 7 MPH (6 KT):0
Visibility: greater than 7 mile(s):0
Temperature: 78 F (26 C)
Dew Point: 35 F (2 C)
Relative Humidity: 20%
Pressure (altimeter): 29.91 in. Hg (1013 hPa)
ob: GQPA 051500Z 28006KT CAVOK 26/02 Q1013
cycle: 15

Station Type Date Time Source
GQPA TAF UTC NOAA

Error!

Example: see airport list